createdAt,value
2023-05-20T00:03:11.783Z,3.05
2023-05-20T00:06:33.808Z,3.50
2023-05-20T00:09:55.097Z,5.10
2023-05-20T00:13:16.551Z,3.58
2023-05-20T00:16:37.915Z,3.85
2023-05-20T00:20:01.622Z,6.30
2023-05-20T00:23:41.302Z,3.80
2023-05-20T00:27:03.459Z,3.55
2023-05-20T00:30:25.032Z,3.85
2023-05-20T00:33:46.246Z,3.50
2023-05-20T00:37:08.997Z,3.47
2023-05-20T00:40:30.268Z,4.38
2023-05-20T00:43:54.395Z,4.25
2023-05-20T00:47:18.814Z,4.38
2023-05-20T00:50:40.855Z,3.70
2023-05-20T00:54:04.402Z,3.97
2023-05-20T00:57:26.617Z,3.83
2023-05-20T01:00:48.271Z,4.00
2023-05-20T01:04:10.399Z,4.88
2023-05-20T01:07:32.034Z,4.28
2023-05-20T01:10:57.517Z,4.50
2023-05-20T01:14:26.558Z,4.20
2023-05-20T01:17:51.216Z,4.72
2023-05-20T01:21:15.080Z,4.75
2023-05-20T01:24:37.739Z,4.30
2023-05-20T01:27:59.711Z,4.47
2023-05-20T01:31:25.779Z,4.45
2023-05-20T01:34:51.938Z,4.43
2023-05-20T01:38:15.374Z,4.25
2023-05-20T01:41:39.093Z,4.22
2023-05-20T01:45:00.583Z,4.65
2023-05-20T01:48:16.999Z,4.72
2023-05-20T01:51:38.296Z,4.82
2023-05-20T01:54:59.589Z,4.60
2023-05-20T01:58:22.292Z,4.40
2023-05-20T02:01:43.733Z,4.22
2023-05-20T02:05:05.244Z,4.70
2023-05-20T02:08:26.500Z,5.25
2023-05-20T02:11:47.810Z,4.53
2023-05-20T02:15:10.749Z,5.07
2023-05-20T02:18:32.810Z,5.43
2023-05-20T02:21:56.777Z,4.28
2023-05-20T02:25:18.055Z,5.18
2023-05-20T02:28:40.828Z,4.85
2023-05-20T02:32:03.660Z,5.50
2023-05-20T02:35:25.500Z,5.13
2023-05-20T02:38:46.745Z,5.55
2023-05-20T02:42:08.012Z,5.05
2023-05-20T02:45:29.234Z,6.45
2023-05-20T02:48:51.916Z,5.95
2023-05-20T02:52:13.262Z,5.43
2023-05-20T02:55:35.720Z,5.78
2023-05-20T02:58:57.211Z,6.40
2023-05-20T03:02:18.554Z,5.75
2023-05-20T03:05:46.097Z,4.38
2023-05-20T03:09:07.438Z,5.30
2023-05-20T03:12:26.870Z,4.90
2023-05-20T03:15:48.231Z,5.25
2023-05-20T03:19:09.527Z,6.10
2023-05-20T03:22:32.337Z,7.55
2023-05-20T03:25:53.591Z,5.10
2023-05-20T03:29:14.851Z,5.78
2023-05-20T03:32:36.227Z,6.00
2023-05-20T03:35:56.270Z,5.60
2023-05-20T03:39:18.945Z,5.50
2023-05-20T03:42:40.242Z,5.60
2023-05-20T03:46:02.554Z,5.95
2023-05-20T03:49:23.846Z,5.85
2023-05-20T03:52:45.186Z,5.97
2023-05-20T03:56:07.840Z,5.93
2023-05-20T03:59:28.713Z,6.20
2023-05-20T04:02:50.079Z,5.93
2023-05-20T04:06:11.586Z,6.00
2023-05-20T04:09:32.867Z,6.25
2023-05-20T04:12:55.070Z,6.07
2023-05-20T04:16:16.371Z,6.00
2023-05-20T04:19:38.339Z,7.45
2023-05-20T04:23:00.200Z,6.10
2023-05-20T04:26:23.061Z,5.82
2023-05-20T04:29:47.083Z,5.50
2023-05-20T04:33:08.861Z,5.82
2023-05-20T04:36:34.756Z,6.55
2023-05-20T04:39:55.813Z,6.20
2023-05-20T04:43:17.554Z,6.70
2023-05-20T04:46:40.193Z,5.68
2023-05-20T04:50:01.384Z,5.60
2023-05-20T04:53:23.472Z,5.18
2023-05-20T04:56:44.775Z,6.05
2023-05-20T05:00:07.947Z,5.72
2023-05-20T05:03:31.389Z,6.78
2023-05-20T05:06:53.069Z,5.78
2023-05-20T05:10:15.843Z,7.57
2023-05-20T05:13:37.051Z,9.02
2023-05-20T05:16:52.971Z,4.43
2023-05-20T05:20:17.537Z,4.68
2023-05-20T05:23:39.398Z,4.22
2023-05-20T05:27:00.657Z,4.45
2023-05-20T05:30:22.224Z,3.90
2023-05-20T05:33:43.727Z,5.70
2023-05-20T05:37:06.409Z,4.45
2023-05-20T05:40:28.174Z,5.32
2023-05-20T05:43:49.385Z,4.78
2023-05-20T05:47:10.895Z,4.95
2023-05-20T05:50:32.159Z,5.25
2023-05-20T05:53:55.069Z,6.53
2023-05-20T05:57:16.353Z,5.00
2023-05-20T06:00:37.631Z,5.57
2023-05-20T06:03:59.154Z,5.13
2023-05-20T06:07:21.136Z,5.60
2023-05-20T06:10:48.131Z,4.78
2023-05-20T06:14:09.434Z,5.35
2023-05-20T06:17:31.004Z,7.32
2023-05-20T06:20:56.588Z,8.13
2023-05-20T06:24:05.714Z,5.57
2023-05-20T06:27:28.580Z,6.05
2023-05-20T06:30:49.967Z,5.18
2023-05-20T06:34:09.280Z,4.78
2023-05-20T06:37:30.593Z,4.72
2023-05-20T06:40:52.160Z,6.00
2023-05-20T06:44:14.877Z,7.15
2023-05-20T06:47:37.897Z,5.55
2023-05-20T06:51:00.138Z,4.72
2023-05-20T06:54:22.072Z,5.20
2023-05-20T06:57:43.516Z,4.80
2023-05-20T07:01:07.445Z,5.57
2023-05-20T07:04:28.871Z,5.70
2023-05-20T07:07:50.256Z,4.97
2023-05-20T07:11:11.583Z,6.82
2023-05-20T07:14:32.780Z,5.20
2023-05-20T07:17:55.576Z,5.85
2023-05-20T07:21:16.935Z,4.40
2023-05-20T07:24:38.237Z,4.60
2023-05-20T07:28:01.050Z,4.95
2023-05-20T07:31:22.341Z,7.78
2023-05-20T07:34:45.060Z,7.70
2023-05-20T07:38:06.341Z,6.20
2023-05-20T07:41:27.860Z,6.28
2023-05-20T07:44:49.022Z,6.15
2023-05-20T07:48:11.060Z,6.25
2023-05-20T07:51:33.813Z,6.22
2023-05-20T07:54:55.167Z,8.10
2023-05-20T07:58:16.479Z,10.60
2023-05-20T08:01:38.666Z,7.65
2023-05-20T08:04:59.949Z,8.32
2023-05-20T08:08:22.714Z,7.18
2023-05-20T08:11:47.156Z,7.90
2023-05-20T08:15:09.628Z,5.88
2023-05-20T08:18:30.950Z,6.90
2023-05-20T08:21:52.243Z,7.82
2023-05-20T08:25:16.285Z,7.53
2023-05-20T08:28:38.370Z,6.45
2023-05-20T08:31:55.047Z,7.63
2023-05-20T08:35:16.330Z,6.53
2023-05-20T08:38:37.839Z,6.28
2023-05-20T08:42:00.532Z,6.60
2023-05-20T08:45:29.523Z,8.63
2023-05-20T08:48:52.281Z,6.78
2023-05-20T08:52:15.624Z,6.38
2023-05-20T08:55:43.415Z,7.20
2023-05-20T08:59:06.695Z,7.18
2023-05-20T09:02:33.029Z,6.95
2023-05-20T09:05:54.458Z,8.98
2023-05-20T09:09:19.453Z,7.55
2023-05-20T09:12:40.975Z,9.10
2023-05-20T09:16:04.327Z,5.80
2023-05-20T09:19:25.848Z,7.55
2023-05-20T09:22:52.513Z,9.82
2023-05-20T09:26:14.946Z,7.05
2023-05-20T09:29:36.599Z,6.18
2023-05-20T09:33:00.633Z,6.03
2023-05-20T09:36:23.769Z,5.60
2023-05-20T09:39:51.016Z,6.40
2023-05-20T09:43:17.581Z,6.10
2023-05-20T09:46:40.097Z,7.68
2023-05-20T09:50:04.499Z,6.85
2023-05-20T09:53:28.031Z,11.40
2023-05-20T09:56:50.652Z,6.55
2023-05-20T10:00:17.692Z,6.72
2023-05-20T10:03:43.970Z,10.13
2023-05-20T10:08:01.099Z,7.18
2023-05-20T10:11:37.880Z,7.55
2023-05-20T10:15:25.721Z,6.78
2023-05-20T10:18:58.231Z,6.65
2023-05-20T10:22:28.422Z,9.02
2023-05-20T10:25:54.707Z,6.57
2023-05-20T10:29:27.764Z,6.90
2023-05-20T10:32:53.769Z,8.85
2023-05-20T10:36:26.450Z,6.38
2023-05-20T10:39:50.553Z,5.90
2023-05-20T10:43:27.518Z,8.25
2023-05-20T10:47:23.748Z,8.00
2023-05-20T10:50:44.464Z,7.03
2023-05-20T10:54:11.083Z,7.68
2023-05-20T10:57:33.384Z,6.88
2023-05-20T11:00:55.486Z,7.68
2023-05-20T11:04:17.892Z,6.78
2023-05-20T11:07:45.457Z,7.65
2023-05-20T11:11:08.474Z,6.43
2023-05-20T11:14:30.506Z,6.60
2023-05-20T11:17:53.766Z,7.10
2023-05-20T11:21:15.401Z,8.00
2023-05-20T11:24:36.694Z,7.00
2023-05-20T11:28:00.915Z,6.07
2023-05-20T11:31:24.931Z,6.05
2023-05-20T11:34:47.075Z,5.72
2023-05-20T11:38:09.535Z,9.23
2023-05-20T11:41:30.948Z,6.53
2023-05-20T11:44:54.301Z,6.40
2023-05-20T11:48:20.525Z,12.05
2023-05-20T11:51:43.868Z,6.45
2023-05-20T11:55:06.228Z,7.30
2023-05-20T11:58:28.637Z,6.78
2023-05-20T12:01:51.844Z,7.03
2023-05-20T12:05:13.776Z,6.82
2023-05-20T12:08:35.008Z,6.97
2023-05-20T12:11:56.819Z,7.15
2023-05-20T12:15:18.466Z,7.35
2023-05-20T12:18:42.972Z,7.95
2023-05-20T12:22:04.217Z,7.30
2023-05-20T12:25:25.743Z,7.18
2023-05-20T12:28:47.010Z,7.13
2023-05-20T12:32:08.772Z,7.00
2023-05-20T12:35:38.088Z,5.88
2023-05-20T12:38:59.892Z,7.55
2023-05-20T12:42:21.391Z,6.18
2023-05-20T12:45:42.695Z,8.98
2023-05-20T12:49:04.046Z,13.15
2023-05-20T12:52:27.213Z,7.78
2023-05-20T12:55:49.201Z,6.50
2023-05-20T12:59:10.515Z,6.63
2023-05-20T13:02:31.912Z,6.65
2023-05-20T13:05:53.282Z,7.13
2023-05-20T13:09:16.029Z,8.00
2023-05-20T13:12:37.710Z,7.63
2023-05-20T13:16:00.164Z,7.20
2023-05-20T13:19:22.172Z,7.90
2023-05-20T13:22:43.745Z,7.60
2023-05-20T13:26:06.795Z,8.43
2023-05-20T13:29:28.242Z,6.00
2023-05-20T13:32:49.669Z,7.10
2023-05-20T13:36:11.706Z,7.07
2023-05-20T13:39:33.066Z,6.53
2023-05-20T13:42:55.782Z,5.95
2023-05-20T13:46:17.556Z,7.45
2023-05-20T13:49:38.901Z,6.57
2023-05-20T13:53:00.692Z,5.72
2023-05-20T13:56:21.974Z,10.38
2023-05-20T13:59:44.721Z,9.50
2023-05-20T14:03:09.078Z,6.35
2023-05-20T14:06:32.065Z,7.68
2023-05-20T14:09:53.299Z,7.20
2023-05-20T14:13:14.677Z,10.48
2023-05-20T14:16:39.752Z,6.85
2023-05-20T14:20:01.845Z,7.22
2023-05-20T14:23:23.296Z,7.43
2023-05-20T14:26:44.721Z,8.15
2023-05-20T14:30:06.898Z,7.47
2023-05-20T14:33:29.922Z,7.65
2023-05-20T14:36:51.469Z,10.63
2023-05-20T14:40:13.379Z,7.30
2023-05-20T14:43:34.974Z,12.93
2023-05-20T14:46:57.095Z,7.50
2023-05-20T14:50:19.969Z,12.90
2023-05-20T14:53:41.414Z,7.25
2023-05-20T14:57:04.137Z,7.28
2023-05-20T15:00:25.520Z,16.08
2023-05-20T15:03:48.263Z,8.48
2023-05-20T15:07:11.441Z,8.20
2023-05-20T15:10:33.382Z,8.40
2023-05-20T15:13:55.007Z,11.07
2023-05-20T15:17:16.514Z,8.98
2023-05-20T15:20:37.860Z,11.43
2023-05-20T15:24:00.892Z,8.32
2023-05-20T15:27:24.153Z,10.05
2023-05-20T15:30:45.307Z,11.07
2023-05-20T15:34:06.947Z,9.20
2023-05-20T15:37:28.552Z,8.15
2023-05-20T15:40:51.561Z,9.65
2023-05-20T15:44:13.327Z,7.82
2023-05-20T15:47:32.641Z,9.63
2023-05-20T15:50:54.037Z,8.73
2023-05-20T15:54:50.910Z,8.77
2023-05-20T15:58:13.814Z,8.60
2023-05-20T16:01:35.113Z,10.35
2023-05-20T16:04:56.334Z,8.40
2023-05-20T16:08:17.984Z,9.07
2023-05-20T16:11:39.316Z,9.45
2023-05-20T16:15:01.964Z,10.02
2023-05-20T16:18:23.635Z,8.43
2023-05-20T16:21:45.124Z,7.70
2023-05-20T16:25:06.811Z,9.07
2023-05-20T16:28:28.198Z,8.10
2023-05-20T16:31:50.899Z,11.85
2023-05-20T16:35:13.341Z,8.10
2023-05-20T16:38:35.563Z,7.20
2023-05-20T16:41:56.913Z,6.03
2023-05-20T16:45:18.304Z,7.50
2023-05-20T16:48:41.391Z,7.13
2023-05-20T16:52:02.688Z,6.40
2023-05-20T16:55:24.064Z,8.75
2023-05-20T16:58:45.586Z,7.68
2023-05-20T17:02:06.908Z,6.70
2023-05-20T17:05:29.598Z,5.90
2023-05-20T17:08:51.111Z,6.50
2023-05-20T17:12:12.426Z,6.25
2023-05-20T17:15:37.099Z,6.18
2023-05-20T17:18:58.885Z,7.35
2023-05-20T17:22:21.580Z,6.00
2023-05-20T17:25:41.798Z,6.00
2023-05-20T17:29:03.086Z,6.30
2023-05-20T17:32:24.315Z,7.57
2023-05-20T17:35:45.718Z,7.18
2023-05-20T17:39:09.755Z,8.25
2023-05-20T17:42:31.126Z,8.32
2023-05-20T17:45:52.599Z,5.93
2023-05-20T17:49:13.906Z,6.95
2023-05-20T17:52:35.418Z,8.38
2023-05-20T17:55:58.433Z,7.10
2023-05-20T17:59:19.660Z,6.03
2023-05-20T18:02:40.953Z,6.85
2023-05-20T18:06:05.650Z,7.18
2023-05-20T18:09:27.023Z,19.58
2023-05-20T18:12:49.755Z,13.93
2023-05-20T18:16:11.048Z,32.55
2023-05-20T18:19:33.939Z,10.13
2023-05-20T18:22:58.634Z,11.82
2023-05-20T18:26:20.307Z,23.13
2023-05-20T18:29:43.184Z,17.75
2023-05-20T18:33:04.475Z,11.20
2023-05-20T18:36:27.547Z,15.60
2023-05-20T18:39:49.084Z,24.20
2023-05-20T18:43:10.610Z,14.43
2023-05-20T18:46:33.401Z,12.10
2023-05-20T18:49:55.673Z,14.65
2023-05-20T18:53:18.899Z,13.00
2023-05-20T18:56:39.610Z,9.93
2023-05-20T19:00:02.530Z,11.18
2023-05-20T19:03:25.395Z,16.58
2023-05-20T19:06:46.741Z,13.93
2023-05-20T19:10:09.036Z,9.98
2023-05-20T19:13:30.687Z,10.88
2023-05-20T19:16:51.983Z,11.38
2023-05-20T19:20:14.924Z,22.95
2023-05-20T19:23:36.426Z,12.57
2023-05-20T19:26:57.706Z,14.85
2023-05-20T19:30:19.039Z,15.95
2023-05-20T19:33:40.425Z,12.93
2023-05-20T19:37:03.303Z,18.58
2023-05-20T19:40:24.683Z,16.75
2023-05-20T19:43:45.958Z,15.82
2023-05-20T19:47:07.989Z,17.85
2023-05-20T19:50:29.176Z,21.23
2023-05-20T19:53:52.111Z,15.20
2023-05-20T19:57:13.485Z,13.30
2023-05-20T20:00:34.901Z,30.45
2023-05-20T20:03:57.522Z,17.52
2023-05-20T20:07:18.873Z,16.25
2023-05-20T20:10:41.712Z,17.85
2023-05-20T20:14:03.065Z,14.40
2023-05-20T20:17:24.974Z,13.77
2023-05-20T20:20:46.271Z,19.80
2023-05-20T20:24:07.693Z,16.13
2023-05-20T20:27:30.370Z,15.20
2023-05-20T20:30:51.644Z,16.75
2023-05-20T20:34:13.067Z,13.57
2023-05-20T20:37:35.597Z,17.58
2023-05-20T20:40:59.469Z,15.38
2023-05-20T20:44:22.701Z,17.83
2023-05-20T20:47:45.078Z,14.93
2023-05-20T20:51:06.372Z,20.48
2023-05-20T20:54:27.653Z,19.17
2023-05-20T20:57:49.669Z,15.02
2023-05-20T21:01:12.543Z,18.63
2023-05-20T21:04:33.889Z,19.05
2023-05-20T21:07:58.498Z,22.88
2023-05-20T21:11:22.524Z,17.20
2023-05-20T21:14:44.485Z,18.33
2023-05-20T21:18:07.090Z,15.38
2023-05-20T21:21:28.418Z,13.82
2023-05-20T21:24:49.728Z,14.45
2023-05-20T21:28:11.263Z,15.20
2023-05-20T21:31:32.829Z,14.15
2023-05-20T21:34:58.126Z,18.40
2023-05-20T21:38:19.662Z,14.63
2023-05-20T21:41:41.106Z,18.10
2023-05-20T21:45:02.422Z,17.42
2023-05-20T21:48:23.787Z,16.13
2023-05-20T21:51:46.623Z,15.63
2023-05-20T21:55:08.750Z,14.90
2023-05-20T21:58:29.962Z,16.20
2023-05-20T22:01:51.706Z,14.38
2023-05-20T22:05:13.196Z,17.23
2023-05-20T22:08:35.905Z,15.13
2023-05-20T22:11:57.438Z,12.32
2023-05-20T22:15:18.782Z,13.27
2023-05-20T22:18:40.125Z,15.52
2023-05-20T22:22:01.436Z,15.50
2023-05-20T22:25:24.158Z,14.38
2023-05-20T22:28:46.004Z,15.00
2023-05-20T22:32:07.619Z,17.27
2023-05-20T22:35:28.864Z,19.50
2023-05-20T22:38:50.174Z,16.52
2023-05-20T22:42:12.984Z,16.13
2023-05-20T22:45:34.413Z,15.75
2023-05-20T22:48:58.502Z,25.30
2023-05-20T22:52:21.345Z,25.88
2023-05-20T22:55:42.636Z,18.77
2023-05-20T22:59:05.593Z,16.85
2023-05-20T23:02:26.935Z,20.88
2023-05-20T23:05:48.300Z,21.20
2023-05-20T23:09:09.804Z,18.88
2023-05-20T23:12:31.175Z,20.88
2023-05-20T23:15:54.344Z,23.30
2023-05-20T23:19:15.587Z,14.43
2023-05-20T23:22:36.909Z,13.52
2023-05-20T23:25:58.968Z,14.05
2023-05-20T23:29:20.437Z,13.60
2023-05-20T23:32:43.659Z,13.05
2023-05-20T23:36:05.278Z,14.77
2023-05-20T23:39:26.579Z,13.85
2023-05-20T23:42:47.926Z,12.38
2023-05-20T23:46:09.318Z,12.25
2023-05-20T23:49:32.223Z,12.07
2023-05-20T23:52:53.967Z,22.90
2023-05-20T23:56:15.313Z,25.10
2023-05-20T23:59:36.594Z,19.73
